sensor_id;sensor_type;location;lat;lon;timestamp;temperature;humidity
44647;DHT22;56315;-33.902;151.160;2022-12-31T00:00:04;29.10;99.90
44647;DHT22;56315;-33.902;151.160;2022-12-31T00:02:31;28.80;99.90
44647;DHT22;56315;-33.902;151.160;2022-12-31T00:04:58;28.60;99.90
44647;DHT22;56315;-33.902;151.160;2022-12-31T00:07:24;28.60;99.90
44647;DHT22;56315;-33.902;151.160;2022-12-31T00:09:51;28.70;99.90
44647;DHT22;56315;-33.902;151.160;2022-12-31T00:12:17;28.50;99.90
44647;DHT22;56315;-33.902;151.160;2022-12-31T00:14:44;28.60;99.90
44647;DHT22;56315;-33.902;151.160;2022-12-31T00:17:11;28.90;99.90
44647;DHT22;56315;-33.902;151.160;2022-12-31T00:19:37;29.20;99.90
44647;DHT22;56315;-33.902;151.160;2022-12-31T00:22:04;29.70;99.90
44647;DHT22;56315;-33.902;151.160;2022-12-31T00:24:30;29.90;99.90
44647;DHT22;56315;-33.902;151.160;2022-12-31T00:26:58;30.20;99.90
44647;DHT22;56315;-33.902;151.160;2022-12-31T00:29:24;29.90;99.90
44647;DHT22;56315;-33.902;151.160;2022-12-31T00:31:51;29.80;99.90
44647;DHT22;56315;-33.902;151.160;2022-12-31T00:34:17;29.70;99.90
44647;DHT22;56315;-33.902;151.160;2022-12-31T00:36:44;29.80;99.90
44647;DHT22;56315;-33.902;151.160;2022-12-31T00:39:11;29.80;99.90
44647;DHT22;56315;-33.902;151.160;2022-12-31T00:41:38;29.70;99.90
44647;DHT22;56315;-33.902;151.160;2022-12-31T00:44:04;29.80;99.90
44647;DHT22;56315;-33.902;151.160;2022-12-31T00:46:31;29.70;99.90
44647;DHT22;56315;-33.902;151.160;2022-12-31T00:48:58;29.40;99.90
44647;DHT22;56315;-33.902;151.160;2022-12-31T00:51:25;29.50;99.90
44647;DHT22;56315;-33.902;151.160;2022-12-31T00:53:55;29.40;99.90
44647;DHT22;56315;-33.902;151.160;2022-12-31T00:56:23;29.20;99.90
44647;DHT22;56315;-33.902;151.160;2022-12-31T00:58:50;29.20;99.90
44647;DHT22;56315;-33.902;151.160;2022-12-31T01:01:21;29.20;99.90
44647;DHT22;56315;-33.902;151.160;2022-12-31T01:03:48;29.40;99.90
44647;DHT22;56315;-33.902;151.160;2022-12-31T01:06:15;29.30;99.90
44647;DHT22;56315;-33.902;151.160;2022-12-31T01:08:42;29.40;99.90
44647;DHT22;56315;-33.902;151.160;2022-12-31T01:11:10;29.20;99.90
44647;DHT22;56315;-33.902;151.160;2022-12-31T01:13:50;29.00;99.90
44647;DHT22;56315;-33.902;151.160;2022-12-31T01:16:18;29.10;99.90
44647;DHT22;56315;-33.902;151.160;2022-12-31T01:18:45;29.20;99.90
44647;DHT22;56315;-33.902;151.160;2022-12-31T01:21:12;29.30;99.90
44647;DHT22;56315;-33.902;151.160;2022-12-31T01:23:39;29.30;99.90
44647;DHT22;56315;-33.902;151.160;2022-12-31T01:26:07;29.20;99.90
44647;DHT22;56315;-33.902;151.160;2022-12-31T01:28:34;29.30;99.90
44647;DHT22;56315;-33.902;151.160;2022-12-31T01:31:05;29.50;99.90
44647;DHT22;56315;-33.902;151.160;2022-12-31T01:33:32;29.80;99.90
44647;DHT22;56315;-33.902;151.160;2022-12-31T01:36:03;30.10;99.90
44647;DHT22;56315;-33.902;151.160;2022-12-31T01:38:29;30.20;99.90
44647;DHT22;56315;-33.902;151.160;2022-12-31T01:40:56;30.10;99.90
44647;DHT22;56315;-33.902;151.160;2022-12-31T01:43:23;30.10;99.90
44647;DHT22;56315;-33.902;151.160;2022-12-31T01:45:50;30.00;99.90
44647;DHT22;56315;-33.902;151.160;2022-12-31T01:48:23;30.10;99.90
44647;DHT22;56315;-33.902;151.160;2022-12-31T01:50:50;30.30;99.90
44647;DHT22;56315;-33.902;151.160;2022-12-31T01:53:18;30.50;99.90
44647;DHT22;56315;-33.902;151.160;2022-12-31T01:58:17;30.90;99.90
44647;DHT22;56315;-33.902;151.160;2022-12-31T02:00:45;31.10;99.90
44647;DHT22;56315;-33.902;151.160;2022-12-31T02:03:12;31.10;99.90
44647;DHT22;56315;-33.902;151.160;2022-12-31T02:08:44;30.60;99.90
44647;DHT22;56315;-33.902;151.160;2022-12-31T02:14:06;30.70;99.90
44647;DHT22;56315;-33.902;151.160;2022-12-31T02:16:42;30.50;99.90
44647;DHT22;56315;-33.902;151.160;2022-12-31T02:19:29;30.30;99.90
44647;DHT22;56315;-33.902;151.160;2022-12-31T02:24:55;29.60;99.90
44647;DHT22;56315;-33.902;151.160;2022-12-31T02:32:36;29.20;99.90
44647;DHT22;56315;-33.902;151.160;2022-12-31T02:35:07;28.90;99.90
44647;DHT22;56315;-33.902;151.160;2022-12-31T02:37:35;28.70;99.90
44647;DHT22;56315;-33.902;151.160;2022-12-31T02:40:05;28.60;99.90
44647;DHT22;56315;-33.902;151.160;2022-12-31T02:42:33;28.40;99.90
44647;DHT22;56315;-33.902;151.160;2022-12-31T02:44:59;28.30;99.90
44647;DHT22;56315;-33.902;151.160;2022-12-31T02:52:57;28.30;99.90
44647;DHT22;56315;-33.902;151.160;2022-12-31T02:58:11;28.60;99.90
44647;DHT22;56315;-33.902;151.160;2022-12-31T03:00:43;28.60;99.90
44647;DHT22;56315;-33.902;151.160;2022-12-31T03:03:30;28.30;99.90
44647;DHT22;56315;-33.902;151.160;2022-12-31T03:05:57;28.00;99.90
44647;DHT22;56315;-33.902;151.160;2022-12-31T03:08:24;27.80;99.90
44647;DHT22;56315;-33.902;151.160;2022-12-31T03:10:51;27.70;99.90
44647;DHT22;56315;-33.902;151.160;2022-12-31T03:13:18;27.50;99.90
44647;DHT22;56315;-33.902;151.160;2022-12-31T03:15:44;27.20;99.90
44647;DHT22;56315;-33.902;151.160;2022-12-31T03:18:14;27.00;99.90
44647;DHT22;56315;-33.902;151.160;2022-12-31T03:20:43;26.80;99.90
44647;DHT22;56315;-33.902;151.160;2022-12-31T03:23:32;26.80;99.90
44647;DHT22;56315;-33.902;151.160;2022-12-31T03:26:00;26.90;99.90
44647;DHT22;56315;-33.902;151.160;2022-12-31T03:28:27;26.90;99.90
44647;DHT22;56315;-33.902;151.160;2022-12-31T03:30:56;26.80;99.90
44647;DHT22;56315;-33.902;151.160;2022-12-31T03:33:23;26.80;99.90
44647;DHT22;56315;-33.902;151.160;2022-12-31T03:35:50;26.80;99.90
44647;DHT22;56315;-33.902;151.160;2022-12-31T03:38:17;26.80;99.90
44647;DHT22;56315;-33.902;151.160;2022-12-31T03:40:46;26.80;99.90
44647;DHT22;56315;-33.902;151.160;2022-12-31T03:43:13;26.90;99.90
44647;DHT22;56315;-33.902;151.160;2022-12-31T03:45:40;26.80;99.90
44647;DHT22;56315;-33.902;151.160;2022-12-31T03:48:07;26.70;99.90
44647;DHT22;56315;-33.902;151.160;2022-12-31T03:50:34;26.50;99.90
44647;DHT22;56315;-33.902;151.160;2022-12-31T03:53:00;26.50;99.90
44647;DHT22;56315;-33.902;151.160;2022-12-31T03:55:27;26.50;99.90
44647;DHT22;56315;-33.902;151.160;2022-12-31T03:57:54;26.70;99.90
44647;DHT22;56315;-33.902;151.160;2022-12-31T04:00:20;26.80;99.90
44647;DHT22;56315;-33.902;151.160;2022-12-31T04:02:47;27.00;99.90
44647;DHT22;56315;-33.902;151.160;2022-12-31T04:05:14;27.10;99.90
44647;DHT22;56315;-33.902;151.160;2022-12-31T04:07:42;27.10;99.90
44647;DHT22;56315;-33.902;151.160;2022-12-31T04:10:10;27.20;99.90
44647;DHT22;56315;-33.902;151.160;2022-12-31T04:12:37;27.30;99.90
44647;DHT22;56315;-33.902;151.160;2022-12-31T04:15:04;27.40;99.90
44647;DHT22;56315;-33.902;151.160;2022-12-31T04:17:31;27.40;99.90
44647;DHT22;56315;-33.902;151.160;2022-12-31T04:19:58;27.50;99.90
44647;DHT22;56315;-33.902;151.160;2022-12-31T04:22:24;27.40;99.90
44647;DHT22;56315;-33.902;151.160;2022-12-31T04:24:51;27.30;99.90
44647;DHT22;56315;-33.902;151.160;2022-12-31T04:27:18;27.20;99.90
44647;DHT22;56315;-33.902;151.160;2022-12-31T04:29:44;27.30;99.90
44647;DHT22;56315;-33.902;151.160;2022-12-31T04:32:11;27.20;99.90
44647;DHT22;56315;-33.902;151.160;2022-12-31T04:34:37;27.20;99.90
44647;DHT22;56315;-33.902;151.160;2022-12-31T04:37:04;27.20;99.90
44647;DHT22;56315;-33.902;151.160;2022-12-31T04:39:31;27.30;99.90
44647;DHT22;56315;-33.902;151.160;2022-12-31T04:41:57;27.10;99.90
44647;DHT22;56315;-33.902;151.160;2022-12-31T04:44:24;27.10;99.90
44647;DHT22;56315;-33.902;151.160;2022-12-31T04:46:50;27.10;99.90
44647;DHT22;56315;-33.902;151.160;2022-12-31T04:49:17;27.00;99.90
44647;DHT22;56315;-33.902;151.160;2022-12-31T04:51:44;26.90;99.90
44647;DHT22;56315;-33.902;151.160;2022-12-31T04:54:10;26.70;99.90
44647;DHT22;56315;-33.902;151.160;2022-12-31T04:56:37;26.50;99.90
44647;DHT22;56315;-33.902;151.160;2022-12-31T04:59:04;26.50;99.90
44647;DHT22;56315;-33.902;151.160;2022-12-31T05:01:31;26.50;99.90
44647;DHT22;56315;-33.902;151.160;2022-12-31T05:03:58;26.50;99.90
44647;DHT22;56315;-33.902;151.160;2022-12-31T05:06:25;26.60;99.90
44647;DHT22;56315;-33.902;151.160;2022-12-31T05:08:51;26.60;99.90
44647;DHT22;56315;-33.902;151.160;2022-12-31T05:11:18;26.50;99.90
44647;DHT22;56315;-33.902;151.160;2022-12-31T05:13:45;26.50;99.90
44647;DHT22;56315;-33.902;151.160;2022-12-31T05:16:11;26.50;99.90
44647;DHT22;56315;-33.902;151.160;2022-12-31T05:18:38;26.50;99.90
44647;DHT22;56315;-33.902;151.160;2022-12-31T05:21:05;26.50;99.90
44647;DHT22;56315;-33.902;151.160;2022-12-31T05:23:31;26.40;99.90
44647;DHT22;56315;-33.902;151.160;2022-12-31T05:25:58;26.40;99.90
44647;DHT22;56315;-33.902;151.160;2022-12-31T05:28:26;26.30;99.90
44647;DHT22;56315;-33.902;151.160;2022-12-31T05:30:53;26.30;99.90
44647;DHT22;56315;-33.902;151.160;2022-12-31T05:33:21;26.50;99.90
44647;DHT22;56315;-33.902;151.160;2022-12-31T05:35:50;26.40;99.90
44647;DHT22;56315;-33.902;151.160;2022-12-31T05:38:17;26.40;99.90
44647;DHT22;56315;-33.902;151.160;2022-12-31T05:40:44;26.40;99.90
44647;DHT22;56315;-33.902;151.160;2022-12-31T05:43:10;26.40;99.90
44647;DHT22;56315;-33.902;151.160;2022-12-31T05:45:37;26.40;99.90
44647;DHT22;56315;-33.902;151.160;2022-12-31T05:48:04;26.40;99.90
44647;DHT22;56315;-33.902;151.160;2022-12-31T05:50:30;26.30;99.90
44647;DHT22;56315;-33.902;151.160;2022-12-31T05:52:57;26.10;99.90
44647;DHT22;56315;-33.902;151.160;2022-12-31T05:55:24;26.10;99.90
44647;DHT22;56315;-33.902;151.160;2022-12-31T05:57:50;26.10;99.90
44647;DHT22;56315;-33.902;151.160;2022-12-31T06:00:17;26.00;99.90
44647;DHT22;56315;-33.902;151.160;2022-12-31T06:02:44;25.90;99.90
44647;DHT22;56315;-33.902;151.160;2022-12-31T06:05:10;25.70;99.90
44647;DHT22;56315;-33.902;151.160;2022-12-31T06:07:37;25.50;99.90
44647;DHT22;56315;-33.902;151.160;2022-12-31T06:10:04;25.40;99.90
44647;DHT22;56315;-33.902;151.160;2022-12-31T06:12:31;25.40;99.90
44647;DHT22;56315;-33.902;151.160;2022-12-31T06:14:57;25.30;99.90
44647;DHT22;56315;-33.902;151.160;2022-12-31T06:17:24;25.30;99.90
44647;DHT22;56315;-33.902;151.160;2022-12-31T06:19:51;25.40;99.90
44647;DHT22;56315;-33.902;151.160;2022-12-31T06:22:17;25.40;99.90
44647;DHT22;56315;-33.902;151.160;2022-12-31T06:24:44;25.50;99.90
44647;DHT22;56315;-33.902;151.160;2022-12-31T06:27:11;25.50;99.90
44647;DHT22;56315;-33.902;151.160;2022-12-31T06:29:38;25.60;99.90
44647;DHT22;56315;-33.902;151.160;2022-12-31T06:32:04;25.70;99.90
44647;DHT22;56315;-33.902;151.160;2022-12-31T06:34:31;25.70;99.90
44647;DHT22;56315;-33.902;151.160;2022-12-31T06:36:58;25.70;99.90
44647;DHT22;56315;-33.902;151.160;2022-12-31T06:39:24;25.70;99.90
44647;DHT22;56315;-33.902;151.160;2022-12-31T06:41:51;25.60;99.90
44647;DHT22;56315;-33.902;151.160;2022-12-31T06:44:18;25.70;99.90
44647;DHT22;56315;-33.902;151.160;2022-12-31T06:46:47;25.60;99.90
44647;DHT22;56315;-33.902;151.160;2022-12-31T06:49:14;25.60;99.90
44647;DHT22;56315;-33.902;151.160;2022-12-31T06:51:41;25.40;99.90
44647;DHT22;56315;-33.902;151.160;2022-12-31T06:54:07;25.40;99.90
44647;DHT22;56315;-33.902;151.160;2022-12-31T06:56:34;25.40;99.90
44647;DHT22;56315;-33.902;151.160;2022-12-31T06:59:01;25.30;99.90
44647;DHT22;56315;-33.902;151.160;2022-12-31T07:06:37;25.10;99.90
44647;DHT22;56315;-33.902;151.160;2022-12-31T07:11:41;24.90;99.90
44647;DHT22;56315;-33.902;151.160;2022-12-31T07:14:21;24.90;99.90
44647;DHT22;56315;-33.902;151.160;2022-12-31T07:21:48;24.90;99.90
44647;DHT22;56315;-33.902;151.160;2022-12-31T07:24:16;24.90;99.90
44647;DHT22;56315;-33.902;151.160;2022-12-31T07:37:02;24.50;99.90
44647;DHT22;56315;-33.902;151.160;2022-12-31T07:42:43;24.40;99.90
44647;DHT22;56315;-33.902;151.160;2022-12-31T07:45:03;24.40;99.90
44647;DHT22;56315;-33.902;151.160;2022-12-31T07:47:35;24.20;99.90
44647;DHT22;56315;-33.902;151.160;2022-12-31T07:50:02;24.20;99.90
44647;DHT22;56315;-33.902;151.160;2022-12-31T07:52:29;24.10;99.90
44647;DHT22;56315;-33.902;151.160;2022-12-31T07:54:55;24.10;99.90
44647;DHT22;56315;-33.902;151.160;2022-12-31T07:57:22;24.10;99.90
44647;DHT22;56315;-33.902;151.160;2022-12-31T08:00:06;24.10;99.90
44647;DHT22;56315;-33.902;151.160;2022-12-31T08:02:52;24.10;99.90
44647;DHT22;56315;-33.902;151.160;2022-12-31T08:05:25;24.00;99.90
44647;DHT22;56315;-33.902;151.160;2022-12-31T08:07:57;24.00;99.90
44647;DHT22;56315;-33.902;151.160;2022-12-31T08:10:37;23.90;99.90
44647;DHT22;56315;-33.902;151.160;2022-12-31T08:13:07;24.00;99.90
44647;DHT22;56315;-33.902;151.160;2022-12-31T08:15:35;23.90;99.90
44647;DHT22;56315;-33.902;151.160;2022-12-31T08:18:02;24.00;99.90
44647;DHT22;56315;-33.902;151.160;2022-12-31T08:20:29;24.00;99.90
44647;DHT22;56315;-33.902;151.160;2022-12-31T08:25:51;24.00;99.90
44647;DHT22;56315;-33.902;151.160;2022-12-31T08:47:05;23.70;99.90
44647;DHT22;56315;-33.902;151.160;2022-12-31T08:49:34;23.70;99.90
44647;DHT22;56315;-33.902;151.160;2022-12-31T08:52:01;23.60;99.90
44647;DHT22;56315;-33.902;151.160;2022-12-31T08:54:27;23.60;99.90
44647;DHT22;56315;-33.902;151.160;2022-12-31T09:02:28;23.50;99.90
44647;DHT22;56315;-33.902;151.160;2022-12-31T09:07:51;23.40;99.90
44647;DHT22;56315;-33.902;151.160;2022-12-31T09:15:17;23.30;99.90
44647;DHT22;56315;-33.902;151.160;2022-12-31T09:17:47;23.30;99.90
44647;DHT22;56315;-33.902;151.160;2022-12-31T09:20:15;23.30;99.90
44647;DHT22;56315;-33.902;151.160;2022-12-31T09:22:42;23.20;99.90
44647;DHT22;56315;-33.902;151.160;2022-12-31T09:25:13;23.20;99.90
44647;DHT22;56315;-33.902;151.160;2022-12-31T09:30:42;23.20;99.90
44647;DHT22;56315;-33.902;151.160;2022-12-31T09:33:12;23.30;99.90
44647;DHT22;56315;-33.902;151.160;2022-12-31T09:35:41;23.30;99.90
44647;DHT22;56315;-33.902;151.160;2022-12-31T09:38:15;23.20;99.90
44647;DHT22;56315;-33.902;151.160;2022-12-31T09:48:31;23.20;99.90
44647;DHT22;56315;-33.902;151.160;2022-12-31T09:51:07;23.20;99.90
44647;DHT22;56315;-33.902;151.160;2022-12-31T09:53:58;23.30;99.90
44647;DHT22;56315;-33.902;151.160;2022-12-31T09:56:36;23.20;99.90
44647;DHT22;56315;-33.902;151.160;2022-12-31T09:59:05;23.20;99.90
44647;DHT22;56315;-33.902;151.160;2022-12-31T10:04:09;23.20;99.90
44647;DHT22;56315;-33.902;151.160;2022-12-31T10:12:44;23.20;99.90
44647;DHT22;56315;-33.902;151.160;2022-12-31T10:30:18;22.90;99.90
44647;DHT22;56315;-33.902;151.160;2022-12-31T10:46:17;22.80;99.90
44647;DHT22;56315;-33.902;151.160;2022-12-31T11:02:11;22.80;99.90
44647;DHT22;56315;-33.902;151.160;2022-12-31T11:24:52;22.80;99.90
44647;DHT22;56315;-33.902;151.160;2022-12-31T11:32:32;22.90;99.90
44647;DHT22;56315;-33.902;151.160;2022-12-31T11:35:02;22.80;99.90
44647;DHT22;56315;-33.902;151.160;2022-12-31T11:37:48;22.80;99.90
44647;DHT22;56315;-33.902;151.160;2022-12-31T11:43:01;22.70;99.90
44647;DHT22;56315;-33.902;151.160;2022-12-31T11:56:43;22.70;99.90
44647;DHT22;56315;-33.902;151.160;2022-12-31T11:59:12;22.70;99.90
44647;DHT22;56315;-33.902;151.160;2022-12-31T12:01:59;22.60;99.90
44647;DHT22;56315;-33.902;151.160;2022-12-31T12:04:28;22.60;99.90
44647;DHT22;56315;-33.902;151.160;2022-12-31T12:06:55;22.60;99.90
44647;DHT22;56315;-33.902;151.160;2022-12-31T12:09:29;22.60;99.90
44647;DHT22;56315;-33.902;151.160;2022-12-31T12:11:57;22.50;99.90
44647;DHT22;56315;-33.902;151.160;2022-12-31T12:17:07;22.40;99.90
44647;DHT22;56315;-33.902;151.160;2022-12-31T12:19:39;22.40;99.90
44647;DHT22;56315;-33.902;151.160;2022-12-31T12:22:10;22.40;99.90
44647;DHT22;56315;-33.902;151.160;2022-12-31T12:24:37;22.40;99.90
44647;DHT22;56315;-33.902;151.160;2022-12-31T12:27:04;22.40;99.90
44647;DHT22;56315;-33.902;151.160;2022-12-31T12:29:31;22.40;99.90
44647;DHT22;56315;-33.902;151.160;2022-12-31T12:32:03;22.40;99.90
44647;DHT22;56315;-33.902;151.160;2022-12-31T12:34:31;22.40;99.90
44647;DHT22;56315;-33.902;151.160;2022-12-31T12:36:58;22.30;99.90
44647;DHT22;56315;-33.902;151.160;2022-12-31T12:39:31;22.30;99.90
44647;DHT22;56315;-33.902;151.160;2022-12-31T12:41:59;22.30;99.90
44647;DHT22;56315;-33.902;151.160;2022-12-31T12:44:26;22.30;99.90
44647;DHT22;56315;-33.902;151.160;2022-12-31T12:46:53;22.20;99.90
44647;DHT22;56315;-33.902;151.160;2022-12-31T12:49:31;22.20;99.90
44647;DHT22;56315;-33.902;151.160;2022-12-31T12:52:02;22.20;99.90
44647;DHT22;56315;-33.902;151.160;2022-12-31T12:57:55;22.30;99.90
44647;DHT22;56315;-33.902;151.160;2022-12-31T13:11:15;22.40;99.90
44647;DHT22;56315;-33.902;151.160;2022-12-31T13:13:55;22.40;99.90
44647;DHT22;56315;-33.902;151.160;2022-12-31T13:21:44;22.30;99.90
44647;DHT22;56315;-33.902;151.160;2022-12-31T13:29:33;22.40;99.90
44647;DHT22;56315;-33.902;151.160;2022-12-31T13:32:01;22.40;99.90
44647;DHT22;56315;-33.902;151.160;2022-12-31T13:34:30;22.40;99.90
44647;DHT22;56315;-33.902;151.160;2022-12-31T13:37:01;22.50;99.90
44647;DHT22;56315;-33.902;151.160;2022-12-31T13:39:29;22.50;99.90
44647;DHT22;56315;-33.902;151.160;2022-12-31T13:44:26;22.50;99.90
44647;DHT22;56315;-33.902;151.160;2022-12-31T13:54:52;22.60;99.90
44647;DHT22;56315;-33.902;151.160;2022-12-31T13:57:42;22.60;99.90
44647;DHT22;56315;-33.902;151.160;2022-12-31T14:00:16;22.60;99.90
44647;DHT22;56315;-33.902;151.160;2022-12-31T14:02:51;22.60;99.90
44647;DHT22;56315;-33.902;151.160;2022-12-31T14:05:24;22.60;99.90
44647;DHT22;56315;-33.902;151.160;2022-12-31T14:07:58;22.60;99.90
44647;DHT22;56315;-33.902;151.160;2022-12-31T14:13:09;22.70;99.90
44647;DHT22;56315;-33.902;151.160;2022-12-31T14:15:49;22.70;99.90
44647;DHT22;56315;-33.902;151.160;2022-12-31T14:18:22;22.60;99.90
44647;DHT22;56315;-33.902;151.160;2022-12-31T14:21:12;22.60;99.90
44647;DHT22;56315;-33.902;151.160;2022-12-31T14:23:58;22.60;99.90
44647;DHT22;56315;-33.902;151.160;2022-12-31T14:26:32;22.70;99.90
44647;DHT22;56315;-33.902;151.160;2022-12-31T14:29:47;22.70;99.90
44647;DHT22;56315;-33.902;151.160;2022-12-31T14:34:24;22.70;99.90
44647;DHT22;56315;-33.902;151.160;2022-12-31T14:52:26;22.60;99.90
44647;DHT22;56315;-33.902;151.160;2022-12-31T14:54:57;22.60;99.90
44647;DHT22;56315;-33.902;151.160;2022-12-31T14:57:25;22.70;99.90
44647;DHT22;56315;-33.902;151.160;2022-12-31T14:59:53;22.60;99.90
44647;DHT22;56315;-33.902;151.160;2022-12-31T15:02:27;22.60;99.90
44647;DHT22;56315;-33.902;151.160;2022-12-31T15:10:31;22.60;99.90
44647;DHT22;56315;-33.902;151.160;2022-12-31T15:13:06;22.60;99.90
44647;DHT22;56315;-33.902;151.160;2022-12-31T15:20:43;22.60;99.90
44647;DHT22;56315;-33.902;151.160;2022-12-31T15:23:22;22.50;99.90
44647;DHT22;56315;-33.902;151.160;2022-12-31T15:25:59;22.50;99.90
44647;DHT22;56315;-33.902;151.160;2022-12-31T15:28:30;22.50;99.90
44647;DHT22;56315;-33.902;151.160;2022-12-31T15:31:01;22.60;99.90
44647;DHT22;56315;-33.902;151.160;2022-12-31T15:33:31;22.50;99.90
44647;DHT22;56315;-33.902;151.160;2022-12-31T15:36:09;22.50;99.90
44647;DHT22;56315;-33.902;151.160;2022-12-31T15:38:37;22.50;99.90
44647;DHT22;56315;-33.902;151.160;2022-12-31T15:43:53;22.40;99.90
44647;DHT22;56315;-33.902;151.160;2022-12-31T15:46:27;22.30;99.90
44647;DHT22;56315;-33.902;151.160;2022-12-31T15:48:56;22.20;99.90
44647;DHT22;56315;-33.902;151.160;2022-12-31T15:51:40;22.10;99.90
44647;DHT22;56315;-33.902;151.160;2022-12-31T15:54:13;22.00;99.90
44647;DHT22;56315;-33.902;151.160;2022-12-31T15:56:42;21.90;99.90
44647;DHT22;56315;-33.902;151.160;2022-12-31T15:59:12;21.90;99.90
44647;DHT22;56315;-33.902;151.160;2022-12-31T16:01:40;21.80;99.90
44647;DHT22;56315;-33.902;151.160;2022-12-31T16:04:24;21.80;99.90
44647;DHT22;56315;-33.902;151.160;2022-12-31T16:06:51;21.70;99.90
44647;DHT22;56315;-33.902;151.160;2022-12-31T16:09:22;21.80;99.90
44647;DHT22;56315;-33.902;151.160;2022-12-31T16:11:50;21.80;99.90
44647;DHT22;56315;-33.902;151.160;2022-12-31T16:14:19;21.80;99.90
44647;DHT22;56315;-33.902;151.160;2022-12-31T16:16:54;21.80;99.90
44647;DHT22;56315;-33.902;151.160;2022-12-31T16:21:54;21.90;99.90
44647;DHT22;56315;-33.902;151.160;2022-12-31T16:24:31;21.80;99.90
44647;DHT22;56315;-33.902;151.160;2022-12-31T16:27:03;21.90;99.90
44647;DHT22;56315;-33.902;151.160;2022-12-31T16:29:31;21.90;99.90
44647;DHT22;56315;-33.902;151.160;2022-12-31T16:31:58;21.90;99.90
44647;DHT22;56315;-33.902;151.160;2022-12-31T16:34:25;21.80;99.90
44647;DHT22;56315;-33.902;151.160;2022-12-31T16:36:59;21.80;99.90
44647;DHT22;56315;-33.902;151.160;2022-12-31T16:39:28;21.90;99.90
44647;DHT22;56315;-33.902;151.160;2022-12-31T16:42:16;21.90;99.90
44647;DHT22;56315;-33.902;151.160;2022-12-31T16:44:41;21.90;99.90
44647;DHT22;56315;-33.902;151.160;2022-12-31T16:47:11;21.80;99.90
44647;DHT22;56315;-33.902;151.160;2022-12-31T16:49:39;21.90;99.90
44647;DHT22;56315;-33.902;151.160;2022-12-31T16:52:07;21.90;99.90
44647;DHT22;56315;-33.902;151.160;2022-12-31T16:54:43;21.80;99.90
44647;DHT22;56315;-33.902;151.160;2022-12-31T16:57:17;21.90;99.90
44647;DHT22;56315;-33.902;151.160;2022-12-31T16:59:45;21.90;99.90
44647;DHT22;56315;-33.902;151.160;2022-12-31T17:02:19;21.90;99.90
44647;DHT22;56315;-33.902;151.160;2022-12-31T17:04:47;21.90;99.90
44647;DHT22;56315;-33.902;151.160;2022-12-31T17:07:37;21.90;99.90
44647;DHT22;56315;-33.902;151.160;2022-12-31T17:12:28;21.70;99.90
44647;DHT22;56315;-33.902;151.160;2022-12-31T17:14:59;21.80;99.90
44647;DHT22;56315;-33.902;151.160;2022-12-31T17:17:26;21.70;99.90
44647;DHT22;56315;-33.902;151.160;2022-12-31T17:19:59;21.60;99.90
44647;DHT22;56315;-33.902;151.160;2022-12-31T17:22:27;21.60;99.90
44647;DHT22;56315;-33.902;151.160;2022-12-31T17:25:01;21.50;99.90
44647;DHT22;56315;-33.902;151.160;2022-12-31T17:27:28;21.40;99.90
44647;DHT22;56315;-33.902;151.160;2022-12-31T17:30:40;21.30;99.90
44647;DHT22;56315;-33.902;151.160;2022-12-31T17:32:42;21.10;99.90
44647;DHT22;56315;-33.902;151.160;2022-12-31T17:35:26;21.00;99.90
44647;DHT22;56315;-33.902;151.160;2022-12-31T17:37:53;20.80;99.90
44647;DHT22;56315;-33.902;151.160;2022-12-31T17:40:35;20.70;99.90
44647;DHT22;56315;-33.902;151.160;2022-12-31T17:43:02;20.50;99.90
44647;DHT22;56315;-33.902;151.160;2022-12-31T17:45:32;20.40;99.90
44647;DHT22;56315;-33.902;151.160;2022-12-31T17:48:01;20.30;99.90
44647;DHT22;56315;-33.902;151.160;2022-12-31T17:50:28;20.30;99.90
44647;DHT22;56315;-33.902;151.160;2022-12-31T17:52:56;20.30;99.90
44647;DHT22;56315;-33.902;151.160;2022-12-31T17:55:24;20.30;99.90
44647;DHT22;56315;-33.902;151.160;2022-12-31T17:57:55;20.20;99.90
44647;DHT22;56315;-33.902;151.160;2022-12-31T18:00:23;20.20;99.90
44647;DHT22;56315;-33.902;151.160;2022-12-31T18:02:50;20.10;99.90
44647;DHT22;56315;-33.902;151.160;2022-12-31T18:05:18;20.10;99.90
44647;DHT22;56315;-33.902;151.160;2022-12-31T18:07:45;20.10;99.90
44647;DHT22;56315;-33.902;151.160;2022-12-31T18:10:13;20.00;99.90
44647;DHT22;56315;-33.902;151.160;2022-12-31T18:12:41;19.90;99.90
44647;DHT22;56315;-33.902;151.160;2022-12-31T18:15:09;19.90;99.90
44647;DHT22;56315;-33.902;151.160;2022-12-31T18:17:39;19.90;99.90
44647;DHT22;56315;-33.902;151.160;2022-12-31T18:20:06;19.90;99.90
44647;DHT22;56315;-33.902;151.160;2022-12-31T18:22:33;19.90;99.90
44647;DHT22;56315;-33.902;151.160;2022-12-31T18:24:59;19.90;99.90
44647;DHT22;56315;-33.902;151.160;2022-12-31T18:27:26;19.90;99.90
44647;DHT22;56315;-33.902;151.160;2022-12-31T18:29:55;19.90;99.90
44647;DHT22;56315;-33.902;151.160;2022-12-31T18:32:23;20.00;99.90
44647;DHT22;56315;-33.902;151.160;2022-12-31T18:34:50;20.00;99.90
44647;DHT22;56315;-33.902;151.160;2022-12-31T18:37:17;20.00;99.90
44647;DHT22;56315;-33.902;151.160;2022-12-31T18:39:44;20.10;99.90
44647;DHT22;56315;-33.902;151.160;2022-12-31T18:42:11;20.20;99.90
44647;DHT22;56315;-33.902;151.160;2022-12-31T18:44:39;20.30;99.90
44647;DHT22;56315;-33.902;151.160;2022-12-31T18:47:12;20.40;99.90
44647;DHT22;56315;-33.902;151.160;2022-12-31T18:49:39;20.50;99.90
44647;DHT22;56315;-33.902;151.160;2022-12-31T18:52:11;20.60;99.90
44647;DHT22;56315;-33.902;151.160;2022-12-31T18:54:38;20.70;99.90
44647;DHT22;56315;-33.902;151.160;2022-12-31T18:57:04;20.80;99.90
44647;DHT22;56315;-33.902;151.160;2022-12-31T18:59:31;20.90;99.90
44647;DHT22;56315;-33.902;151.160;2022-12-31T19:01:58;21.00;99.90
44647;DHT22;56315;-33.902;151.160;2022-12-31T19:04:24;21.10;99.90
44647;DHT22;56315;-33.902;151.160;2022-12-31T19:06:51;21.10;99.90
44647;DHT22;56315;-33.902;151.160;2022-12-31T19:09:17;21.20;99.90
44647;DHT22;56315;-33.902;151.160;2022-12-31T19:11:44;21.20;99.90
44647;DHT22;56315;-33.902;151.160;2022-12-31T19:14:15;21.10;99.90
44647;DHT22;56315;-33.902;151.160;2022-12-31T19:16:46;21.00;99.90
44647;DHT22;56315;-33.902;151.160;2022-12-31T19:19:13;20.90;99.90
44647;DHT22;56315;-33.902;151.160;2022-12-31T19:21:40;20.90;99.90
44647;DHT22;56315;-33.902;151.160;2022-12-31T19:24:18;20.90;99.90